<?xml version="1.0" encoding="UTF-8"?>
<gpx version="1.1" creator="https://www.www-youtrack-es.amenigma.com" xsi:schemaLocation="http://www.topografix.com/GPX/1/1 http://www.topografix.com/GPX/1/1/gpx.xsd http://www.garmin.com/xmlschemas/GpxExtensions/v3 http://www.garmin.com/xmlschemas/GpxExtensionsv3.xsd http://www.garmin.com/xmlschemas/TrackPointExtension/v1 http://www.garmin.com/xmlschemas/TrackPointExtensionv1.xsd" xmlns:gpxtpx="http://www.garmin.com/xmlschemas/TrackPointExtension/v1" xmlns:gpxx="http://www.garmin.com/xmlschemas/GpxExtensions/v3" xmlns:xsi="http://www.w3.org/2001/XMLSchema-instance">
  <metadata>
    <link href="https://www.www-youtrack-es.amenigma.com">
      <text>YouTrack.es</text>
    </link>
    <time>2026-09-01T06:52:35Z</time>
  </metadata>
  <trk>
    <src>https://www.www-youtrack-es.amenigma.com</src>
    <link href="https://www.www-youtrack-es.amenigma.com/ruta/5865-cova-avellaners">
      <text>YouTrack.es</text>
    </link>
    <trkseg>
      <trkpt lat="40.789493" lon="0.306786">
        <ele>992.514</ele>
        <time>2018-03-25T08:07:18Z</time>
      </trkpt>
      <trkpt lat="40.789538" lon="0.306905">
        <ele>992.354</ele>
        <time>2018-03-25T08:10:35Z</time>
      </trkpt>
      <trkpt lat="40.789396" lon="0.306944">
        <ele>991.409</ele>
        <time>2018-03-25T08:12:05Z</time>
      </trkpt>
      <trkpt lat="40.789183" lon="0.306736">
        <ele>991.208</ele>
        <time>2018-03-25T08:12:45Z</time>
      </trkpt>
      <trkpt lat="40.788637" lon="0.306756">
        <ele>988.863</ele>
        <time>2018-03-25T08:13:35Z</time>
      </trkpt>
      <trkpt lat="40.788043" lon="0.306577">
        <ele>992.774</ele>
        <time>2018-03-25T08:14:27Z</time>
      </trkpt>
      <trkpt lat="40.787131" lon="0.306692">
        <ele>1003.116</ele>
        <time>2018-03-25T08:16:13Z</time>
      </trkpt>
      <trkpt lat="40.786785" lon="0.307669">
        <ele>1028.513</ele>
        <time>2018-03-25T08:19:39Z</time>
      </trkpt>
      <trkpt lat="40.786499" lon="0.307937">
        <ele>1047.673</ele>
        <time>2018-03-25T08:21:18Z</time>
      </trkpt>
      <trkpt lat="40.786235" lon="0.307665">
        <ele>1058.119</ele>
        <time>2018-03-25T08:22:44Z</time>
      </trkpt>
      <trkpt lat="40.785669" lon="0.308616">
        <ele>1058.996</ele>
        <time>2018-03-25T08:24:44Z</time>
      </trkpt>
      <trkpt lat="40.785678" lon="0.309221">
        <ele>1067.299</ele>
        <time>2018-03-25T08:25:46Z</time>
      </trkpt>
      <trkpt lat="40.785905" lon="0.309491">
        <ele>1071.221</ele>
        <time>2018-03-25T08:26:21Z</time>
      </trkpt>
      <trkpt lat="40.785789" lon="0.309768">
        <ele>1079.441</ele>
        <time>2018-03-25T08:27:14Z</time>
      </trkpt>
      <trkpt lat="40.785341" lon="0.309460">
        <ele>1086.705</ele>
        <time>2018-03-25T08:28:26Z</time>
      </trkpt>
      <trkpt lat="40.784957" lon="0.309544">
        <ele>1099.008</ele>
        <time>2018-03-25T08:29:28Z</time>
      </trkpt>
      <trkpt lat="40.784793" lon="0.309207">
        <ele>1105.594</ele>
        <time>2018-03-25T08:30:36Z</time>
      </trkpt>
      <trkpt lat="40.784380" lon="0.309205">
        <ele>1121.415</ele>
        <time>2018-03-25T08:31:57Z</time>
      </trkpt>
      <trkpt lat="40.784614" lon="0.308882">
        <ele>1134.667</ele>
        <time>2018-03-25T08:34:13Z</time>
      </trkpt>
      <trkpt lat="40.784219" lon="0.308473">
        <ele>1153.064</ele>
        <time>2018-03-25T08:36:21Z</time>
      </trkpt>
      <trkpt lat="40.783230" lon="0.308081">
        <ele>1183.854</ele>
        <time>2018-03-25T08:39:08Z</time>
      </trkpt>
      <trkpt lat="40.782881" lon="0.308316">
        <ele>1186.910</ele>
        <time>2018-03-25T08:40:03Z</time>
      </trkpt>
      <trkpt lat="40.782800" lon="0.308142">
        <ele>1186.547</ele>
        <time>2018-03-25T08:41:17Z</time>
      </trkpt>
      <trkpt lat="40.783115" lon="0.308559">
        <ele>1192.520</ele>
        <time>2018-03-25T08:50:24Z</time>
      </trkpt>
      <trkpt lat="40.783304" lon="0.309822">
        <ele>1183.051</ele>
        <time>2018-03-25T08:53:09Z</time>
      </trkpt>
      <trkpt lat="40.784657" lon="0.311931">
        <ele>1188.501</ele>
        <time>2018-03-25T08:56:38Z</time>
      </trkpt>
      <trkpt lat="40.784518" lon="0.312402">
        <ele>1197.011</ele>
        <time>2018-03-25T08:57:34Z</time>
      </trkpt>
      <trkpt lat="40.784147" lon="0.312252">
        <ele>1203.808</ele>
        <time>2018-03-25T08:58:45Z</time>
      </trkpt>
      <trkpt lat="40.783546" lon="0.312753">
        <ele>1226.037</ele>
        <time>2018-03-25T09:00:32Z</time>
      </trkpt>
      <trkpt lat="40.783038" lon="0.314569">
        <ele>1258.948</ele>
        <time>2018-03-25T09:04:19Z</time>
      </trkpt>
      <trkpt lat="40.783045" lon="0.315331">
        <ele>1265.890</ele>
        <time>2018-03-25T09:06:10Z</time>
      </trkpt>
      <trkpt lat="40.782563" lon="0.315806">
        <ele>1277.387</ele>
        <time>2018-03-25T09:07:27Z</time>
      </trkpt>
      <trkpt lat="40.782626" lon="0.315892">
        <ele>1274.347</ele>
        <time>2018-03-25T09:21:48Z</time>
      </trkpt>
      <trkpt lat="40.782303" lon="0.315272">
        <ele>1272.433</ele>
        <time>2018-03-25T09:25:09Z</time>
      </trkpt>
      <trkpt lat="40.781821" lon="0.314934">
        <ele>1273.270</ele>
        <time>2018-03-25T09:26:34Z</time>
      </trkpt>
      <trkpt lat="40.781760" lon="0.314602">
        <ele>1278.633</ele>
        <time>2018-03-25T09:28:00Z</time>
      </trkpt>
      <trkpt lat="40.782137" lon="0.314672">
        <ele>1289.236</ele>
        <time>2018-03-25T09:31:08Z</time>
      </trkpt>
      <trkpt lat="40.782126" lon="0.314267">
        <ele>1308.217</ele>
        <time>2018-03-25T09:33:32Z</time>
      </trkpt>
      <trkpt lat="40.782344" lon="0.314180">
        <ele>1306.518</ele>
        <time>2018-03-25T09:36:58Z</time>
      </trkpt>
      <trkpt lat="40.782229" lon="0.314281">
        <ele>1313.708</ele>
        <time>2018-03-25T09:38:19Z</time>
      </trkpt>
      <trkpt lat="40.782159" lon="0.313993">
        <ele>1333.595</ele>
        <time>2018-03-25T09:47:11Z</time>
      </trkpt>
      <trkpt lat="40.781503" lon="0.313540">
        <ele>1323.596</ele>
        <time>2018-03-25T09:51:11Z</time>
      </trkpt>
      <trkpt lat="40.781239" lon="0.312795">
        <ele>1321.358</ele>
        <time>2018-03-25T09:52:39Z</time>
      </trkpt>
      <trkpt lat="40.780829" lon="0.312579">
        <ele>1309.125</ele>
        <time>2018-03-25T09:53:50Z</time>
      </trkpt>
      <trkpt lat="40.780438" lon="0.312528">
        <ele>1295.965</ele>
        <time>2018-03-25T09:55:02Z</time>
      </trkpt>
      <trkpt lat="40.780025" lon="0.312796">
        <ele>1277.421</ele>
        <time>2018-03-25T09:57:09Z</time>
      </trkpt>
      <trkpt lat="40.780040" lon="0.312962">
        <ele>1270.038</ele>
        <time>2018-03-25T09:59:42Z</time>
      </trkpt>
      <trkpt lat="40.779837" lon="0.313103">
        <ele>1261.381</ele>
        <time>2018-03-25T10:13:51Z</time>
      </trkpt>
      <trkpt lat="40.779930" lon="0.313060">
        <ele>1263.322</ele>
        <time>2018-03-25T10:33:59Z</time>
      </trkpt>
      <trkpt lat="40.779990" lon="0.313472">
        <ele>1257.362</ele>
        <time>2018-03-25T10:36:21Z</time>
      </trkpt>
      <trkpt lat="40.779554" lon="0.313687">
        <ele>1237.408</ele>
        <time>2018-03-25T10:37:54Z</time>
      </trkpt>
      <trkpt lat="40.779363" lon="0.314263">
        <ele>1214.508</ele>
        <time>2018-03-25T10:39:57Z</time>
      </trkpt>
      <trkpt lat="40.779154" lon="0.314274">
        <ele>1208.114</ele>
        <time>2018-03-25T10:40:41Z</time>
      </trkpt>
      <trkpt lat="40.779063" lon="0.314428">
        <ele>1201.925</ele>
        <time>2018-03-25T10:41:45Z</time>
      </trkpt>
      <trkpt lat="40.778722" lon="0.314048">
        <ele>1199.637</ele>
        <time>2018-03-25T10:45:31Z</time>
      </trkpt>
      <trkpt lat="40.778146" lon="0.314416">
        <ele>1159.264</ele>
        <time>2018-03-25T10:50:47Z</time>
      </trkpt>
      <trkpt lat="40.777884" lon="0.314267">
        <ele>1146.494</ele>
        <time>2018-03-25T10:52:21Z</time>
      </trkpt>
      <trkpt lat="40.777813" lon="0.314526">
        <ele>1137.730</ele>
        <time>2018-03-25T10:53:56Z</time>
      </trkpt>
      <trkpt lat="40.777304" lon="0.314490">
        <ele>1107.427</ele>
        <time>2018-03-25T10:57:40Z</time>
      </trkpt>
      <trkpt lat="40.777013" lon="0.313831">
        <ele>1097.270</ele>
        <time>2018-03-25T11:01:40Z</time>
      </trkpt>
      <trkpt lat="40.776010" lon="0.313149">
        <ele>1057.528</ele>
        <time>2018-03-25T11:05:42Z</time>
      </trkpt>
      <trkpt lat="40.775578" lon="0.313013">
        <ele>1045.089</ele>
        <time>2018-03-25T11:14:33Z</time>
      </trkpt>
      <trkpt lat="40.775534" lon="0.312467">
        <ele>1045.817</ele>
        <time>2018-03-25T11:17:29Z</time>
      </trkpt>
      <trkpt lat="40.775748" lon="0.312259">
        <ele>1053.308</ele>
        <time>2018-03-25T11:19:30Z</time>
      </trkpt>
      <trkpt lat="40.775633" lon="0.311603">
        <ele>1056.354</ele>
        <time>2018-03-25T11:21:25Z</time>
      </trkpt>
      <trkpt lat="40.775361" lon="0.310970">
        <ele>1054.075</ele>
        <time>2018-03-25T11:22:47Z</time>
      </trkpt>
      <trkpt lat="40.775072" lon="0.310882">
        <ele>1053.977</ele>
        <time>2018-03-25T11:23:27Z</time>
      </trkpt>
      <trkpt lat="40.775119" lon="0.310678">
        <ele>1057.524</ele>
        <time>2018-03-25T11:24:14Z</time>
      </trkpt>
      <trkpt lat="40.775308" lon="0.310762">
        <ele>1053.934</ele>
        <time>2018-03-25T11:25:44Z</time>
      </trkpt>
      <trkpt lat="40.775441" lon="0.309879">
        <ele>1061.640</ele>
        <time>2018-03-25T11:29:33Z</time>
      </trkpt>
      <trkpt lat="40.775303" lon="0.309790">
        <ele>1063.477</ele>
        <time>2018-03-25T11:30:57Z</time>
      </trkpt>
      <trkpt lat="40.775045" lon="0.307664">
        <ele>1081.390</ele>
        <time>2018-03-25T11:36:55Z</time>
      </trkpt>
      <trkpt lat="40.775144" lon="0.307427">
        <ele>1090.388</ele>
        <time>2018-03-25T11:38:10Z</time>
      </trkpt>
      <trkpt lat="40.775448" lon="0.307291">
        <ele>1103.424</ele>
        <time>2018-03-25T11:41:39Z</time>
      </trkpt>
      <trkpt lat="40.775779" lon="0.306199">
        <ele>1128.126</ele>
        <time>2018-03-25T11:45:56Z</time>
      </trkpt>
      <trkpt lat="40.775500" lon="0.304732">
        <ele>1156.208</ele>
        <time>2018-03-25T11:48:42Z</time>
      </trkpt>
      <trkpt lat="40.775624" lon="0.304324">
        <ele>1166.750</ele>
        <time>2018-03-25T11:49:36Z</time>
      </trkpt>
      <trkpt lat="40.775565" lon="0.304039">
        <ele>1167.231</ele>
        <time>2018-03-25T11:50:10Z</time>
      </trkpt>
      <trkpt lat="40.775489" lon="0.304104">
        <ele>1169.573</ele>
        <time>2018-03-25T11:56:18Z</time>
      </trkpt>
      <trkpt lat="40.775489" lon="0.301752">
        <ele>1190.510</ele>
        <time>2018-03-25T12:03:29Z</time>
      </trkpt>
      <trkpt lat="40.775326" lon="0.300580">
        <ele>1197.580</ele>
        <time>2018-03-25T12:04:53Z</time>
      </trkpt>
      <trkpt lat="40.775862" lon="0.299023">
        <ele>1194.696</ele>
        <time>2018-03-25T12:07:35Z</time>
      </trkpt>
      <trkpt lat="40.776263" lon="0.298926">
        <ele>1190.683</ele>
        <time>2018-03-25T12:08:31Z</time>
      </trkpt>
      <trkpt lat="40.776413" lon="0.299215">
        <ele>1178.596</ele>
        <time>2018-03-25T12:10:54Z</time>
      </trkpt>
      <trkpt lat="40.776553" lon="0.298951">
        <ele>1166.834</ele>
        <time>2018-03-25T12:12:55Z</time>
      </trkpt>
      <trkpt lat="40.777010" lon="0.298858">
        <ele>1145.655</ele>
        <time>2018-03-25T12:15:46Z</time>
      </trkpt>
      <trkpt lat="40.776425" lon="0.297630">
        <ele>1120.810</ele>
        <time>2018-03-25T12:19:26Z</time>
      </trkpt>
      <trkpt lat="40.776909" lon="0.297768">
        <ele>1104.408</ele>
        <time>2018-03-25T12:21:34Z</time>
      </trkpt>
      <trkpt lat="40.777239" lon="0.297595">
        <ele>1091.775</ele>
        <time>2018-03-25T12:23:34Z</time>
      </trkpt>
      <trkpt lat="40.777706" lon="0.297896">
        <ele>1081.766</ele>
        <time>2018-03-25T12:24:33Z</time>
      </trkpt>
      <trkpt lat="40.778229" lon="0.297908">
        <ele>1065.538</ele>
        <time>2018-03-25T12:27:05Z</time>
      </trkpt>
      <trkpt lat="40.778355" lon="0.297808">
        <ele>1067.255</ele>
        <time>2018-03-25T12:27:27Z</time>
      </trkpt>
      <trkpt lat="40.778224" lon="0.297629">
        <ele>1058.295</ele>
        <time>2018-03-25T12:28:09Z</time>
      </trkpt>
      <trkpt lat="40.779128" lon="0.297085">
        <ele>1042.621</ele>
        <time>2018-03-25T12:30:42Z</time>
      </trkpt>
      <trkpt lat="40.779432" lon="0.297055">
        <ele>1035.558</ele>
        <time>2018-03-25T12:32:58Z</time>
      </trkpt>
      <trkpt lat="40.780248" lon="0.296090">
        <ele>1027.681</ele>
        <time>2018-03-25T12:35:49Z</time>
      </trkpt>
      <trkpt lat="40.780951" lon="0.295573">
        <ele>1023.482</ele>
        <time>2018-03-25T12:36:47Z</time>
      </trkpt>
      <trkpt lat="40.781930" lon="0.295465">
        <ele>1020.743</ele>
        <time>2018-03-25T12:38:27Z</time>
      </trkpt>
      <trkpt lat="40.782219" lon="0.294987">
        <ele>1019.717</ele>
        <time>2018-03-25T12:39:09Z</time>
      </trkpt>
      <trkpt lat="40.782520" lon="0.295072">
        <ele>1014.408</ele>
        <time>2018-03-25T12:39:38Z</time>
      </trkpt>
      <trkpt lat="40.782444" lon="0.294513">
        <ele>1012.720</ele>
        <time>2018-03-25T12:40:18Z</time>
      </trkpt>
      <trkpt lat="40.782734" lon="0.293892">
        <ele>1004.361</ele>
        <time>2018-03-25T12:41:08Z</time>
      </trkpt>
      <trkpt lat="40.783579" lon="0.293235">
        <ele>992.623</ele>
        <time>2018-03-25T12:42:41Z</time>
      </trkpt>
      <trkpt lat="40.783365" lon="0.292756">
        <ele>982.210</ele>
        <time>2018-03-25T12:45:44Z</time>
      </trkpt>
      <trkpt lat="40.783301" lon="0.292882">
        <ele>983.160</ele>
        <time>2018-03-25T12:49:01Z</time>
      </trkpt>
      <trkpt lat="40.783470" lon="0.292863">
        <ele>997.266</ele>
        <time>2018-03-25T12:56:17Z</time>
      </trkpt>
      <trkpt lat="40.783618" lon="0.293265">
        <ele>1001.183</ele>
        <time>2018-03-25T12:57:36Z</time>
      </trkpt>
      <trkpt lat="40.783798" lon="0.293521">
        <ele>995.076</ele>
        <time>2018-03-25T12:58:10Z</time>
      </trkpt>
      <trkpt lat="40.784080" lon="0.293619">
        <ele>989.634</ele>
        <time>2018-03-25T12:59:05Z</time>
      </trkpt>
      <trkpt lat="40.784250" lon="0.294026">
        <ele>985.655</ele>
        <time>2018-03-25T12:59:43Z</time>
      </trkpt>
      <trkpt lat="40.784748" lon="0.293827">
        <ele>979.910</ele>
        <time>2018-03-25T13:00:39Z</time>
      </trkpt>
      <trkpt lat="40.785082" lon="0.294284">
        <ele>972.808</ele>
        <time>2018-03-25T13:01:33Z</time>
      </trkpt>
      <trkpt lat="40.785250" lon="0.294246">
        <ele>971.565</ele>
        <time>2018-03-25T13:01:45Z</time>
      </trkpt>
      <trkpt lat="40.785108" lon="0.293931">
        <ele>972.436</ele>
        <time>2018-03-25T13:02:16Z</time>
      </trkpt>
      <trkpt lat="40.784556" lon="0.293447">
        <ele>964.318</ele>
        <time>2018-03-25T13:03:13Z</time>
      </trkpt>
      <trkpt lat="40.784260" lon="0.292702">
        <ele>961.745</ele>
        <time>2018-03-25T13:03:56Z</time>
      </trkpt>
      <trkpt lat="40.783907" lon="0.292411">
        <ele>961.815</ele>
        <time>2018-03-25T13:05:02Z</time>
      </trkpt>
      <trkpt lat="40.783687" lon="0.292569">
        <ele>962.321</ele>
        <time>2018-03-25T13:06:56Z</time>
      </trkpt>
      <trkpt lat="40.784121" lon="0.292354">
        <ele>961.498</ele>
        <time>2018-03-25T13:08:04Z</time>
      </trkpt>
      <trkpt lat="40.784568" lon="0.293343">
        <ele>966.691</ele>
        <time>2018-03-25T13:09:46Z</time>
      </trkpt>
      <trkpt lat="40.784743" lon="0.293391">
        <ele>966.374</ele>
        <time>2018-03-25T13:10:01Z</time>
      </trkpt>
      <trkpt lat="40.785548" lon="0.294444">
        <ele>968.356</ele>
        <time>2018-03-25T13:11:36Z</time>
      </trkpt>
      <trkpt lat="40.785803" lon="0.295198">
        <ele>967.421</ele>
        <time>2018-03-25T13:12:32Z</time>
      </trkpt>
      <trkpt lat="40.786496" lon="0.295828">
        <ele>971.708</ele>
        <time>2018-03-25T13:13:49Z</time>
      </trkpt>
      <trkpt lat="40.786729" lon="0.296377">
        <ele>977.119</ele>
        <time>2018-03-25T13:14:37Z</time>
      </trkpt>
      <trkpt lat="40.787113" lon="0.296781">
        <ele>980.370</ele>
        <time>2018-03-25T13:15:17Z</time>
      </trkpt>
      <trkpt lat="40.787114" lon="0.297051">
        <ele>984.922</ele>
        <time>2018-03-25T13:15:35Z</time>
      </trkpt>
      <trkpt lat="40.786885" lon="0.297223">
        <ele>987.789</ele>
        <time>2018-03-25T13:16:03Z</time>
      </trkpt>
      <trkpt lat="40.786890" lon="0.297569">
        <ele>992.539</ele>
        <time>2018-03-25T13:16:33Z</time>
      </trkpt>
      <trkpt lat="40.787075" lon="0.298785">
        <ele>989.945</ele>
        <time>2018-03-25T13:18:18Z</time>
      </trkpt>
      <trkpt lat="40.787584" lon="0.300196">
        <ele>987.682</ele>
        <time>2018-03-25T13:20:11Z</time>
      </trkpt>
      <trkpt lat="40.787548" lon="0.300908">
        <ele>980.875</ele>
        <time>2018-03-25T13:20:54Z</time>
      </trkpt>
      <trkpt lat="40.788638" lon="0.302565">
        <ele>970.784</ele>
        <time>2018-03-25T13:23:34Z</time>
      </trkpt>
      <trkpt lat="40.789017" lon="0.302878">
        <ele>969.507</ele>
        <time>2018-03-25T13:24:08Z</time>
      </trkpt>
      <trkpt lat="40.788727" lon="0.303138">
        <ele>970.317</ele>
        <time>2018-03-25T13:24:51Z</time>
      </trkpt>
      <trkpt lat="40.788698" lon="0.303508">
        <ele>970.808</ele>
        <time>2018-03-25T13:25:21Z</time>
      </trkpt>
      <trkpt lat="40.789381" lon="0.304930">
        <ele>967.540</ele>
        <time>2018-03-25T13:27:07Z</time>
      </trkpt>
      <trkpt lat="40.789403" lon="0.305832">
        <ele>968.881</ele>
        <time>2018-03-25T13:28:07Z</time>
      </trkpt>
      <trkpt lat="40.789616" lon="0.306511">
        <ele>971.853</ele>
        <time>2018-03-25T13:29:06Z</time>
      </trkpt>
      <trkpt lat="40.789537" lon="0.306894">
        <ele>973.240</ele>
        <time>2018-03-25T13:29:37Z</time>
      </trkpt>
      <trkpt lat="40.789378" lon="0.306826">
        <ele>986.239</ele>
        <time>2018-11-04T07:59:16Z</time>
      </trkpt>
      <trkpt lat="40.789368" lon="0.306928">
        <ele>986.001</ele>
        <time>2018-11-04T08:01:55Z</time>
      </trkpt>
      <trkpt lat="40.789224" lon="0.306620">
        <ele>986.521</ele>
        <time>2018-11-04T08:02:35Z</time>
      </trkpt>
      <trkpt lat="40.789337" lon="0.304908">
        <ele>981.208</ele>
        <time>2018-11-04T08:05:08Z</time>
      </trkpt>
      <trkpt lat="40.788623" lon="0.303334">
        <ele>983.466</ele>
        <time>2018-11-04T08:06:58Z</time>
      </trkpt>
      <trkpt lat="40.788475" lon="0.302188">
        <ele>982.833</ele>
        <time>2018-11-04T08:08:13Z</time>
      </trkpt>
      <trkpt lat="40.787516" lon="0.300796">
        <ele>993.686</ele>
        <time>2018-11-04T08:10:28Z</time>
      </trkpt>
      <trkpt lat="40.787615" lon="0.300382">
        <ele>997.673</ele>
        <time>2018-11-04T08:10:56Z</time>
      </trkpt>
      <trkpt lat="40.786938" lon="0.298103">
        <ele>1004.379</ele>
        <time>2018-11-04T08:13:37Z</time>
      </trkpt>
      <trkpt lat="40.786860" lon="0.297131">
        <ele>999.376</ele>
        <time>2018-11-04T08:14:42Z</time>
      </trkpt>
      <trkpt lat="40.787007" lon="0.297089">
        <ele>997.553</ele>
        <time>2018-11-04T08:14:58Z</time>
      </trkpt>
      <trkpt lat="40.787067" lon="0.296767">
        <ele>993.453</ele>
        <time>2018-11-04T08:15:22Z</time>
      </trkpt>
      <trkpt lat="40.786513" lon="0.295772">
        <ele>983.136</ele>
        <time>2018-11-04T08:16:32Z</time>
      </trkpt>
      <trkpt lat="40.785944" lon="0.295266">
        <ele>978.617</ele>
        <time>2018-11-04T08:17:22Z</time>
      </trkpt>
      <trkpt lat="40.785757" lon="0.294571">
        <ele>977.418</ele>
        <time>2018-11-04T08:18:06Z</time>
      </trkpt>
      <trkpt lat="40.784501" lon="0.293234">
        <ele>972.208</ele>
        <time>2018-11-04T08:20:24Z</time>
      </trkpt>
      <trkpt lat="40.784189" lon="0.292392">
        <ele>968.666</ele>
        <time>2018-11-04T08:21:22Z</time>
      </trkpt>
      <trkpt lat="40.784059" lon="0.291275">
        <ele>969.613</ele>
        <time>2018-11-04T08:22:40Z</time>
      </trkpt>
      <trkpt lat="40.784345" lon="0.290162">
        <ele>974.096</ele>
        <time>2018-11-04T08:23:57Z</time>
      </trkpt>
      <trkpt lat="40.784309" lon="0.289782">
        <ele>975.183</ele>
        <time>2018-11-04T08:24:20Z</time>
      </trkpt>
      <trkpt lat="40.783183" lon="0.286935">
        <ele>996.339</ele>
        <time>2018-11-04T08:28:03Z</time>
      </trkpt>
      <trkpt lat="40.782721" lon="0.286482">
        <ele>1001.396</ele>
        <time>2018-11-04T08:29:20Z</time>
      </trkpt>
      <trkpt lat="40.782487" lon="0.287649">
        <ele>1015.013</ele>
        <time>2018-11-04T08:32:48Z</time>
      </trkpt>
      <trkpt lat="40.782362" lon="0.287732">
        <ele>1020.073</ele>
        <time>2018-11-04T08:33:31Z</time>
      </trkpt>
      <trkpt lat="40.782109" lon="0.287848">
        <ele>1032.328</ele>
        <time>2018-11-04T08:34:30Z</time>
      </trkpt>
      <trkpt lat="40.782064" lon="0.287498">
        <ele>1038.789</ele>
        <time>2018-11-04T08:35:12Z</time>
      </trkpt>
      <trkpt lat="40.781490" lon="0.287237">
        <ele>1062.417</ele>
        <time>2018-11-04T08:37:12Z</time>
      </trkpt>
      <trkpt lat="40.781416" lon="0.287390">
        <ele>1065.208</ele>
        <time>2018-11-04T08:39:21Z</time>
      </trkpt>
      <trkpt lat="40.781179" lon="0.287245">
        <ele>1072.385</ele>
        <time>2018-11-04T08:40:42Z</time>
      </trkpt>
      <trkpt lat="40.780545" lon="0.287863">
        <ele>1066.552</ele>
        <time>2018-11-04T08:42:01Z</time>
      </trkpt>
      <trkpt lat="40.780482" lon="0.288641">
        <ele>1070.735</ele>
        <time>2018-11-04T08:42:59Z</time>
      </trkpt>
      <trkpt lat="40.780238" lon="0.288999">
        <ele>1064.832</ele>
        <time>2018-11-04T08:43:37Z</time>
      </trkpt>
      <trkpt lat="40.780776" lon="0.290608">
        <ele>1072.478</ele>
        <time>2018-11-04T08:45:25Z</time>
      </trkpt>
      <trkpt lat="40.780602" lon="0.290352">
        <ele>1076.935</ele>
        <time>2018-11-04T08:46:01Z</time>
      </trkpt>
      <trkpt lat="40.780335" lon="0.290293">
        <ele>1083.182</ele>
        <time>2018-11-04T08:46:30Z</time>
      </trkpt>
      <trkpt lat="40.779913" lon="0.289913">
        <ele>1085.092</ele>
        <time>2018-11-04T08:47:28Z</time>
      </trkpt>
      <trkpt lat="40.779557" lon="0.289931">
        <ele>1079.325</ele>
        <time>2018-11-04T08:48:09Z</time>
      </trkpt>
      <trkpt lat="40.779497" lon="0.290143">
        <ele>1080.726</ele>
        <time>2018-11-04T08:51:06Z</time>
      </trkpt>
      <trkpt lat="40.779077" lon="0.290161">
        <ele>1100.708</ele>
        <time>2018-11-04T08:57:52Z</time>
      </trkpt>
      <trkpt lat="40.779152" lon="0.290472">
        <ele>1101.608</ele>
        <time>2018-11-04T09:00:15Z</time>
      </trkpt>
      <trkpt lat="40.778942" lon="0.290525">
        <ele>1117.045</ele>
        <time>2018-11-04T09:02:45Z</time>
      </trkpt>
      <trkpt lat="40.778886" lon="0.290731">
        <ele>1113.822</ele>
        <time>2018-11-04T09:09:15Z</time>
      </trkpt>
      <trkpt lat="40.778309" lon="0.290217">
        <ele>1135.625</ele>
        <time>2018-11-04T09:14:50Z</time>
      </trkpt>
      <trkpt lat="40.777860" lon="0.290240">
        <ele>1134.862</ele>
        <time>2018-11-04T09:17:03Z</time>
      </trkpt>
      <trkpt lat="40.777566" lon="0.290414">
        <ele>1136.198</ele>
        <time>2018-11-04T09:19:41Z</time>
      </trkpt>
      <trkpt lat="40.776907" lon="0.290302">
        <ele>1156.485</ele>
        <time>2018-11-04T09:24:05Z</time>
      </trkpt>
      <trkpt lat="40.776634" lon="0.290483">
        <ele>1165.652</ele>
        <time>2018-11-04T09:26:38Z</time>
      </trkpt>
      <trkpt lat="40.776473" lon="0.290439">
        <ele>1171.222</ele>
        <time>2018-11-04T09:27:45Z</time>
      </trkpt>
      <trkpt lat="40.776524" lon="0.289820">
        <ele>1189.716</ele>
        <time>2018-11-04T09:31:15Z</time>
      </trkpt>
      <trkpt lat="40.776360" lon="0.289676">
        <ele>1196.176</ele>
        <time>2018-11-04T09:32:39Z</time>
      </trkpt>
      <trkpt lat="40.776687" lon="0.289548">
        <ele>1197.013</ele>
        <time>2018-11-04T09:35:19Z</time>
      </trkpt>
      <trkpt lat="40.776672" lon="0.289172">
        <ele>1209.408</ele>
        <time>2018-11-04T09:37:27Z</time>
      </trkpt>
      <trkpt lat="40.776791" lon="0.288951">
        <ele>1215.694</ele>
        <time>2018-11-04T09:39:44Z</time>
      </trkpt>
      <trkpt lat="40.776977" lon="0.288938">
        <ele>1212.161</ele>
        <time>2018-11-04T09:41:16Z</time>
      </trkpt>
      <trkpt lat="40.777030" lon="0.288727">
        <ele>1220.284</ele>
        <time>2018-11-04T09:43:05Z</time>
      </trkpt>
      <trkpt lat="40.776921" lon="0.288646">
        <ele>1224.411</ele>
        <time>2018-11-04T09:44:33Z</time>
      </trkpt>
      <trkpt lat="40.777289" lon="0.288261">
        <ele>1233.347</ele>
        <time>2018-11-04T09:49:18Z</time>
      </trkpt>
      <trkpt lat="40.776946" lon="0.287925">
        <ele>1238.574</ele>
        <time>2018-11-04T09:58:21Z</time>
      </trkpt>
      <trkpt lat="40.777047" lon="0.287408">
        <ele>1231.381</ele>
        <time>2018-11-04T10:01:51Z</time>
      </trkpt>
      <trkpt lat="40.776803" lon="0.287366">
        <ele>1241.861</ele>
        <time>2018-11-04T10:04:20Z</time>
      </trkpt>
      <trkpt lat="40.776686" lon="0.286671">
        <ele>1246.046</ele>
        <time>2018-11-04T10:07:22Z</time>
      </trkpt>
      <trkpt lat="40.776351" lon="0.286347">
        <ele>1244.388</ele>
        <time>2018-11-04T10:11:08Z</time>
      </trkpt>
      <trkpt lat="40.776299" lon="0.286433">
        <ele>1245.216</ele>
        <time>2018-11-04T10:12:51Z</time>
      </trkpt>
      <trkpt lat="40.776223" lon="0.286172">
        <ele>1246.708</ele>
        <time>2018-11-04T10:14:26Z</time>
      </trkpt>
      <trkpt lat="40.775909" lon="0.285887">
        <ele>1245.657</ele>
        <time>2018-11-04T10:16:32Z</time>
      </trkpt>
      <trkpt lat="40.775834" lon="0.285234">
        <ele>1247.844</ele>
        <time>2018-11-04T10:19:44Z</time>
      </trkpt>
      <trkpt lat="40.775994" lon="0.284815">
        <ele>1244.447</ele>
        <time>2018-11-04T10:21:51Z</time>
      </trkpt>
      <trkpt lat="40.775380" lon="0.283724">
        <ele>1244.654</ele>
        <time>2018-11-04T10:26:07Z</time>
      </trkpt>
      <trkpt lat="40.775247" lon="0.283241">
        <ele>1248.040</ele>
        <time>2018-11-04T10:28:25Z</time>
      </trkpt>
      <trkpt lat="40.775344" lon="0.282797">
        <ele>1251.627</ele>
        <time>2018-11-04T10:29:29Z</time>
      </trkpt>
      <trkpt lat="40.774952" lon="0.282088">
        <ele>1254.434</ele>
        <time>2018-11-04T10:31:41Z</time>
      </trkpt>
      <trkpt lat="40.774835" lon="0.282091">
        <ele>1254.684</ele>
        <time>2018-11-04T10:36:15Z</time>
      </trkpt>
      <trkpt lat="40.774851" lon="0.281729">
        <ele>1259.217</ele>
        <time>2018-11-04T10:37:48Z</time>
      </trkpt>
      <trkpt lat="40.774738" lon="0.281429">
        <ele>1259.287</ele>
        <time>2018-11-04T10:38:56Z</time>
      </trkpt>
      <trkpt lat="40.774630" lon="0.281449">
        <ele>1260.715</ele>
        <time>2018-11-04T10:41:18Z</time>
      </trkpt>
      <trkpt lat="40.774636" lon="0.280642">
        <ele>1255.408</ele>
        <time>2018-11-04T10:47:56Z</time>
      </trkpt>
      <trkpt lat="40.774292" lon="0.279110">
        <ele>1269.294</ele>
        <time>2018-11-04T10:54:04Z</time>
      </trkpt>
      <trkpt lat="40.773861" lon="0.278304">
        <ele>1267.161</ele>
        <time>2018-11-04T10:56:24Z</time>
      </trkpt>
      <trkpt lat="40.773769" lon="0.277343">
        <ele>1269.734</ele>
        <time>2018-11-04T10:58:57Z</time>
      </trkpt>
      <trkpt lat="40.773153" lon="0.276489">
        <ele>1271.981</ele>
        <time>2018-11-04T11:02:08Z</time>
      </trkpt>
      <trkpt lat="40.772476" lon="0.275955">
        <ele>1291.327</ele>
        <time>2018-11-04T11:05:05Z</time>
      </trkpt>
      <trkpt lat="40.772129" lon="0.275464">
        <ele>1300.384</ele>
        <time>2018-11-04T11:19:03Z</time>
      </trkpt>
      <trkpt lat="40.772967" lon="0.277400">
        <ele>1319.421</ele>
        <time>2018-11-04T11:47:03Z</time>
      </trkpt>
      <trkpt lat="40.773253" lon="0.277740">
        <ele>1322.921</ele>
        <time>2018-11-04T11:48:03Z</time>
      </trkpt>
      <trkpt lat="40.773367" lon="0.278557">
        <ele>1321.896</ele>
        <time>2018-11-04T11:50:32Z</time>
      </trkpt>
      <trkpt lat="40.773809" lon="0.279713">
        <ele>1327.231</ele>
        <time>2018-11-04T11:54:26Z</time>
      </trkpt>
      <trkpt lat="40.773852" lon="0.280904">
        <ele>1315.024</ele>
        <time>2018-11-04T11:56:10Z</time>
      </trkpt>
      <trkpt lat="40.774602" lon="0.282597">
        <ele>1315.508</ele>
        <time>2018-11-04T12:00:11Z</time>
      </trkpt>
      <trkpt lat="40.774651" lon="0.283091">
        <ele>1314.282</ele>
        <time>2018-11-04T12:01:26Z</time>
      </trkpt>
      <trkpt lat="40.774493" lon="0.283628">
        <ele>1304.549</ele>
        <time>2018-11-04T12:02:11Z</time>
      </trkpt>
      <trkpt lat="40.774874" lon="0.283790">
        <ele>1307.292</ele>
        <time>2018-11-04T12:02:52Z</time>
      </trkpt>
      <trkpt lat="40.774946" lon="0.284979">
        <ele>1310.689</ele>
        <time>2018-11-04T12:04:31Z</time>
      </trkpt>
      <trkpt lat="40.775025" lon="0.285286">
        <ele>1309.635</ele>
        <time>2018-11-04T12:04:54Z</time>
      </trkpt>
      <trkpt lat="40.775269" lon="0.285405">
        <ele>1307.592</ele>
        <time>2018-11-04T12:05:23Z</time>
      </trkpt>
      <trkpt lat="40.775051" lon="0.285543">
        <ele>1307.629</ele>
        <time>2018-11-04T12:06:23Z</time>
      </trkpt>
      <trkpt lat="40.775086" lon="0.285689">
        <ele>1306.139</ele>
        <time>2018-11-04T12:06:37Z</time>
      </trkpt>
      <trkpt lat="40.775390" lon="0.286081">
        <ele>1304.089</ele>
        <time>2018-11-04T12:07:14Z</time>
      </trkpt>
      <trkpt lat="40.775435" lon="0.286599">
        <ele>1302.406</ele>
        <time>2018-11-04T12:07:58Z</time>
      </trkpt>
      <trkpt lat="40.775587" lon="0.286717">
        <ele>1302.826</ele>
        <time>2018-11-04T12:08:28Z</time>
      </trkpt>
      <trkpt lat="40.775712" lon="0.286429">
        <ele>1302.408</ele>
        <time>2018-11-04T12:09:04Z</time>
      </trkpt>
      <trkpt lat="40.776149" lon="0.287184">
        <ele>1311.551</ele>
        <time>2018-11-04T12:11:50Z</time>
      </trkpt>
      <trkpt lat="40.775666" lon="0.287610">
        <ele>1321.788</ele>
        <time>2018-11-04T12:17:01Z</time>
      </trkpt>
      <trkpt lat="40.775493" lon="0.287419">
        <ele>1320.331</ele>
        <time>2018-11-04T12:24:30Z</time>
      </trkpt>
      <trkpt lat="40.775361" lon="0.287476">
        <ele>1318.478</ele>
        <time>2018-11-04T12:24:48Z</time>
      </trkpt>
      <trkpt lat="40.775263" lon="0.288825">
        <ele>1296.784</ele>
        <time>2018-11-04T12:27:40Z</time>
      </trkpt>
      <trkpt lat="40.775437" lon="0.289199">
        <ele>1293.871</ele>
        <time>2018-11-04T12:28:46Z</time>
      </trkpt>
      <trkpt lat="40.775105" lon="0.289439">
        <ele>1286.988</ele>
        <time>2018-11-04T12:29:38Z</time>
      </trkpt>
      <trkpt lat="40.775339" lon="0.291760">
        <ele>1272.568</ele>
        <time>2018-11-04T12:32:58Z</time>
      </trkpt>
      <trkpt lat="40.775748" lon="0.293283">
        <ele>1266.588</ele>
        <time>2018-11-04T12:35:56Z</time>
      </trkpt>
      <trkpt lat="40.774990" lon="0.294745">
        <ele>1233.724</ele>
        <time>2018-11-04T12:41:00Z</time>
      </trkpt>
      <trkpt lat="40.774937" lon="0.296635">
        <ele>1231.526</ele>
        <time>2018-11-04T12:46:41Z</time>
      </trkpt>
      <trkpt lat="40.775535" lon="0.299222">
        <ele>1213.608</ele>
        <time>2018-11-04T12:50:20Z</time>
      </trkpt>
      <trkpt lat="40.775882" lon="0.299396">
        <ele>1213.971</ele>
        <time>2018-11-04T12:51:09Z</time>
      </trkpt>
      <trkpt lat="40.776030" lon="0.299638">
        <ele>1224.068</ele>
        <time>2018-11-04T12:51:46Z</time>
      </trkpt>
      <trkpt lat="40.776118" lon="0.299537">
        <ele>1226.541</ele>
        <time>2018-11-04T12:52:05Z</time>
      </trkpt>
      <trkpt lat="40.776981" lon="0.300067">
        <ele>1243.468</ele>
        <time>2018-11-04T12:53:59Z</time>
      </trkpt>
      <trkpt lat="40.777414" lon="0.300713">
        <ele>1254.494</ele>
        <time>2018-11-04T12:55:43Z</time>
      </trkpt>
      <trkpt lat="40.777749" lon="0.300926">
        <ele>1268.821</ele>
        <time>2018-11-04T12:56:35Z</time>
      </trkpt>
      <trkpt lat="40.780020" lon="0.304563">
        <ele>1326.768</ele>
        <time>2018-11-04T13:23:36Z</time>
      </trkpt>
      <trkpt lat="40.780412" lon="0.306714">
        <ele>1313.628</ele>
        <time>2018-11-04T13:26:52Z</time>
      </trkpt>
      <trkpt lat="40.780589" lon="0.306971">
        <ele>1318.187</ele>
        <time>2018-11-04T13:28:16Z</time>
      </trkpt>
      <trkpt lat="40.781461" lon="0.310309">
        <ele>1331.542</ele>
        <time>2018-11-04T13:33:37Z</time>
      </trkpt>
      <trkpt lat="40.781697" lon="0.311871">
        <ele>1329.726</ele>
        <time>2018-11-04T13:35:21Z</time>
      </trkpt>
      <trkpt lat="40.782110" lon="0.312924">
        <ele>1328.508</ele>
        <time>2018-11-04T13:37:20Z</time>
      </trkpt>
      <trkpt lat="40.782166" lon="0.314029">
        <ele>1337.971</ele>
        <time>2018-11-04T13:49:01Z</time>
      </trkpt>
      <trkpt lat="40.781614" lon="0.313642">
        <ele>1324.678</ele>
        <time>2018-11-04T14:18:10Z</time>
      </trkpt>
      <trkpt lat="40.781107" lon="0.312736">
        <ele>1313.011</ele>
        <time>2018-11-04T14:19:41Z</time>
      </trkpt>
      <trkpt lat="40.780870" lon="0.312578">
        <ele>1308.578</ele>
        <time>2018-11-04T14:20:22Z</time>
      </trkpt>
      <trkpt lat="40.780419" lon="0.312546">
        <ele>1298.294</ele>
        <time>2018-11-04T14:21:41Z</time>
      </trkpt>
      <trkpt lat="40.780241" lon="0.312809">
        <ele>1287.661</ele>
        <time>2018-11-04T14:22:50Z</time>
      </trkpt>
      <trkpt lat="40.780036" lon="0.312841">
        <ele>1278.958</ele>
        <time>2018-11-04T14:23:58Z</time>
      </trkpt>
      <trkpt lat="40.779907" lon="0.313241">
        <ele>1266.588</ele>
        <time>2018-11-04T14:31:28Z</time>
      </trkpt>
      <trkpt lat="40.779891" lon="0.313031">
        <ele>1271.273</ele>
        <time>2018-11-04T14:33:22Z</time>
      </trkpt>
      <trkpt lat="40.780042" lon="0.313561">
        <ele>1263.385</ele>
        <time>2018-11-04T14:36:17Z</time>
      </trkpt>
      <trkpt lat="40.780792" lon="0.313946">
        <ele>1273.413</ele>
        <time>2018-11-04T14:38:32Z</time>
      </trkpt>
      <trkpt lat="40.781202" lon="0.314587">
        <ele>1278.908</ele>
        <time>2018-11-04T14:40:15Z</time>
      </trkpt>
      <trkpt lat="40.781769" lon="0.314741">
        <ele>1289.460</ele>
        <time>2018-11-04T14:41:37Z</time>
      </trkpt>
      <trkpt lat="40.782624" lon="0.315904">
        <ele>1281.467</ele>
        <time>2018-11-04T14:45:07Z</time>
      </trkpt>
      <trkpt lat="40.782695" lon="0.315655">
        <ele>1282.320</ele>
        <time>2018-11-04T14:50:00Z</time>
      </trkpt>
      <trkpt lat="40.782723" lon="0.315815">
        <ele>1280.287</ele>
        <time>2018-11-04T14:51:31Z</time>
      </trkpt>
      <trkpt lat="40.783102" lon="0.315463">
        <ele>1272.333</ele>
        <time>2018-11-04T14:54:45Z</time>
      </trkpt>
      <trkpt lat="40.783092" lon="0.314778">
        <ele>1265.570</ele>
        <time>2018-11-04T14:55:51Z</time>
      </trkpt>
      <trkpt lat="40.783534" lon="0.313638">
        <ele>1244.217</ele>
        <time>2018-11-04T14:57:57Z</time>
      </trkpt>
      <trkpt lat="40.783710" lon="0.312737">
        <ele>1228.567</ele>
        <time>2018-11-04T14:59:59Z</time>
      </trkpt>
      <trkpt lat="40.784198" lon="0.312367">
        <ele>1211.969</ele>
        <time>2018-11-04T15:01:23Z</time>
      </trkpt>
      <trkpt lat="40.784594" lon="0.312450">
        <ele>1203.104</ele>
        <time>2018-11-04T15:02:17Z</time>
      </trkpt>
      <trkpt lat="40.784734" lon="0.312088">
        <ele>1198.024</ele>
        <time>2018-11-04T15:03:16Z</time>
      </trkpt>
      <trkpt lat="40.784312" lon="0.311047">
        <ele>1185.108</ele>
        <time>2018-11-04T15:05:09Z</time>
      </trkpt>
      <trkpt lat="40.783763" lon="0.310166">
        <ele>1187.289</ele>
        <time>2018-11-04T15:06:38Z</time>
      </trkpt>
      <trkpt lat="40.783421" lon="0.309879">
        <ele>1191.786</ele>
        <time>2018-11-04T15:07:46Z</time>
      </trkpt>
      <trkpt lat="40.783283" lon="0.308932">
        <ele>1205.989</ele>
        <time>2018-11-04T15:09:29Z</time>
      </trkpt>
      <trkpt lat="40.783004" lon="0.308198">
        <ele>1195.356</ele>
        <time>2018-11-04T15:13:46Z</time>
      </trkpt>
      <trkpt lat="40.783077" lon="0.308301">
        <ele>1195.432</ele>
        <time>2018-11-04T15:15:01Z</time>
      </trkpt>
      <trkpt lat="40.783394" lon="0.308136">
        <ele>1188.829</ele>
        <time>2018-11-04T15:15:59Z</time>
      </trkpt>
      <trkpt lat="40.784235" lon="0.308519">
        <ele>1165.746</ele>
        <time>2018-11-04T15:17:57Z</time>
      </trkpt>
      <trkpt lat="40.784309" lon="0.308442">
        <ele>1162.866</ele>
        <time>2018-11-04T15:19:01Z</time>
      </trkpt>
      <trkpt lat="40.784677" lon="0.308872">
        <ele>1145.422</ele>
        <time>2018-11-04T15:21:01Z</time>
      </trkpt>
      <trkpt lat="40.784537" lon="0.309153">
        <ele>1130.162</ele>
        <time>2018-11-04T15:22:43Z</time>
      </trkpt>
      <trkpt lat="40.784627" lon="0.309325">
        <ele>1125.408</ele>
        <time>2018-11-04T15:23:11Z</time>
      </trkpt>
      <trkpt lat="40.785066" lon="0.309458">
        <ele>1106.608</ele>
        <time>2018-11-04T15:25:17Z</time>
      </trkpt>
      <trkpt lat="40.785377" lon="0.309379">
        <ele>1098.895</ele>
        <time>2018-11-04T15:26:08Z</time>
      </trkpt>
      <trkpt lat="40.786026" lon="0.309712">
        <ele>1086.822</ele>
        <time>2018-11-04T15:27:39Z</time>
      </trkpt>
      <trkpt lat="40.786120" lon="0.309547">
        <ele>1081.945</ele>
        <time>2018-11-04T15:28:09Z</time>
      </trkpt>
      <trkpt lat="40.785844" lon="0.308688">
        <ele>1068.992</ele>
        <time>2018-11-04T15:29:37Z</time>
      </trkpt>
      <trkpt lat="40.786328" lon="0.307734">
        <ele>1069.028</ele>
        <time>2018-11-04T15:30:51Z</time>
      </trkpt>
      <trkpt lat="40.786509" lon="0.307690">
        <ele>1062.615</ele>
        <time>2018-11-04T15:31:36Z</time>
      </trkpt>
      <trkpt lat="40.786664" lon="0.307902">
        <ele>1055.782</ele>
        <time>2018-11-04T15:32:22Z</time>
      </trkpt>
      <trkpt lat="40.786872" lon="0.307664">
        <ele>1041.162</ele>
        <time>2018-11-04T15:33:51Z</time>
      </trkpt>
      <trkpt lat="40.787402" lon="0.306660">
        <ele>1004.671</ele>
        <time>2018-11-04T15:37:20Z</time>
      </trkpt>
      <trkpt lat="40.787327" lon="0.306539">
        <ele>1004.441</ele>
        <time>2018-11-04T15:40:11Z</time>
      </trkpt>
      <trkpt lat="40.788467" lon="0.306840">
        <ele>996.115</ele>
        <time>2018-11-04T15:43:17Z</time>
      </trkpt>
      <trkpt lat="40.789395" lon="0.306825">
        <ele>995.808</ele>
        <time>2018-11-04T15:45:37Z</time>
      </trkpt>
      <trkpt lat="40.785277" lon="0.294300">
        <ele>983.135</ele>
        <time>2016-11-06T08:18:28Z</time>
      </trkpt>
      <trkpt lat="40.785366" lon="0.294142">
        <ele>981.286</ele>
        <time>2016-11-06T08:28:07Z</time>
      </trkpt>
      <trkpt lat="40.785249" lon="0.293960">
        <ele>983.114</ele>
        <time>2016-11-06T08:28:25Z</time>
      </trkpt>
      <trkpt lat="40.784546" lon="0.293347">
        <ele>976.808</ele>
        <time>2016-11-06T08:30:01Z</time>
      </trkpt>
      <trkpt lat="40.784171" lon="0.292312">
        <ele>970.654</ele>
        <time>2016-11-06T08:31:27Z</time>
      </trkpt>
      <trkpt lat="40.784079" lon="0.291330">
        <ele>971.688</ele>
        <time>2016-11-06T08:32:40Z</time>
      </trkpt>
      <trkpt lat="40.784436" lon="0.290248">
        <ele>974.947</ele>
        <time>2016-11-06T08:33:54Z</time>
      </trkpt>
      <trkpt lat="40.784112" lon="0.289070">
        <ele>979.235</ele>
        <time>2016-11-06T08:35:17Z</time>
      </trkpt>
      <trkpt lat="40.783500" lon="0.287511">
        <ele>987.951</ele>
        <time>2016-11-06T08:37:07Z</time>
      </trkpt>
      <trkpt lat="40.782803" lon="0.286655">
        <ele>990.330</ele>
        <time>2016-11-06T08:38:23Z</time>
      </trkpt>
      <trkpt lat="40.782663" lon="0.286276">
        <ele>994.197</ele>
        <time>2016-11-06T08:38:55Z</time>
      </trkpt>
      <trkpt lat="40.782724" lon="0.286786">
        <ele>992.793</ele>
        <time>2016-11-06T08:40:21Z</time>
      </trkpt>
      <trkpt lat="40.782472" lon="0.287163">
        <ele>992.765</ele>
        <time>2016-11-06T08:41:02Z</time>
      </trkpt>
      <trkpt lat="40.782491" lon="0.287761">
        <ele>1005.768</ele>
        <time>2016-11-06T08:42:26Z</time>
      </trkpt>
      <trkpt lat="40.782066" lon="0.287940">
        <ele>1020.614</ele>
        <time>2016-11-06T08:43:49Z</time>
      </trkpt>
      <trkpt lat="40.782066" lon="0.287536">
        <ele>1028.308</ele>
        <time>2016-11-06T08:44:37Z</time>
      </trkpt>
      <trkpt lat="40.781800" lon="0.287583">
        <ele>1037.477</ele>
        <time>2016-11-06T08:45:21Z</time>
      </trkpt>
      <trkpt lat="40.781367" lon="0.287294">
        <ele>1054.231</ele>
        <time>2016-11-06T08:46:53Z</time>
      </trkpt>
      <trkpt lat="40.780669" lon="0.287534">
        <ele>1063.860</ele>
        <time>2016-11-06T08:48:44Z</time>
      </trkpt>
      <trkpt lat="40.780701" lon="0.287812">
        <ele>1061.498</ele>
        <time>2016-11-06T08:49:05Z</time>
      </trkpt>
      <trkpt lat="40.780453" lon="0.287982">
        <ele>1057.624</ele>
        <time>2016-11-06T08:49:34Z</time>
      </trkpt>
      <trkpt lat="40.780460" lon="0.288677">
        <ele>1061.033</ele>
        <time>2016-11-06T08:50:33Z</time>
      </trkpt>
      <trkpt lat="40.780190" lon="0.289215">
        <ele>1054.250</ele>
        <time>2016-11-06T08:51:19Z</time>
      </trkpt>
      <trkpt lat="40.780812" lon="0.290675">
        <ele>1061.956</ele>
        <time>2016-11-06T08:53:15Z</time>
      </trkpt>
      <trkpt lat="40.779853" lon="0.289903">
        <ele>1075.453</ele>
        <time>2016-11-06T08:55:29Z</time>
      </trkpt>
      <trkpt lat="40.779491" lon="0.290148">
        <ele>1074.904</ele>
        <time>2016-11-06T09:00:30Z</time>
      </trkpt>
      <trkpt lat="40.779257" lon="0.290117">
        <ele>1085.014</ele>
        <time>2016-11-06T09:02:37Z</time>
      </trkpt>
      <trkpt lat="40.778879" lon="0.290630">
        <ele>1109.508</ele>
        <time>2016-11-06T09:10:12Z</time>
      </trkpt>
      <trkpt lat="40.778459" lon="0.290460">
        <ele>1117.216</ele>
        <time>2016-11-06T09:12:14Z</time>
      </trkpt>
      <trkpt lat="40.778356" lon="0.290248">
        <ele>1130.730</ele>
        <time>2016-11-06T09:14:13Z</time>
      </trkpt>
      <trkpt lat="40.777750" lon="0.290308">
        <ele>1130.769</ele>
        <time>2016-11-06T09:16:03Z</time>
      </trkpt>
      <trkpt lat="40.777544" lon="0.290474">
        <ele>1128.297</ele>
        <time>2016-11-06T09:16:45Z</time>
      </trkpt>
      <trkpt lat="40.776928" lon="0.290320">
        <ele>1148.463</ele>
        <time>2016-11-06T09:19:50Z</time>
      </trkpt>
      <trkpt lat="40.776699" lon="0.290528">
        <ele>1160.542</ele>
        <time>2016-11-06T09:22:15Z</time>
      </trkpt>
      <trkpt lat="40.776610" lon="0.290462">
        <ele>1165.399</ele>
        <time>2016-11-06T09:22:55Z</time>
      </trkpt>
      <trkpt lat="40.776428" lon="0.290060">
        <ele>1183.575</ele>
        <time>2016-11-06T09:25:52Z</time>
      </trkpt>
      <trkpt lat="40.776561" lon="0.289808">
        <ele>1189.863</ele>
        <time>2016-11-06T09:29:05Z</time>
      </trkpt>
      <trkpt lat="40.776384" lon="0.289689">
        <ele>1200.344</ele>
        <time>2016-11-06T09:32:56Z</time>
      </trkpt>
      <trkpt lat="40.776429" lon="0.289374">
        <ele>1208.018</ele>
        <time>2016-11-06T09:34:45Z</time>
      </trkpt>
      <trkpt lat="40.776826" lon="0.289029">
        <ele>1211.908</ele>
        <time>2016-11-06T09:37:53Z</time>
      </trkpt>
      <trkpt lat="40.777206" lon="0.289017">
        <ele>1210.447</ele>
        <time>2016-11-06T09:39:55Z</time>
      </trkpt>
      <trkpt lat="40.777111" lon="0.288898">
        <ele>1212.891</ele>
        <time>2016-11-06T09:42:28Z</time>
      </trkpt>
      <trkpt lat="40.777273" lon="0.288734">
        <ele>1220.550</ele>
        <time>2016-11-06T09:45:05Z</time>
      </trkpt>
      <trkpt lat="40.777166" lon="0.288552">
        <ele>1230.688</ele>
        <time>2016-11-06T09:46:30Z</time>
      </trkpt>
      <trkpt lat="40.777246" lon="0.288193">
        <ele>1234.574</ele>
        <time>2016-11-06T09:51:39Z</time>
      </trkpt>
      <trkpt lat="40.777175" lon="0.288265">
        <ele>1231.653</ele>
        <time>2016-11-06T09:52:55Z</time>
      </trkpt>
      <trkpt lat="40.777007" lon="0.287971">
        <ele>1239.830</ele>
        <time>2016-11-06T09:56:04Z</time>
      </trkpt>
      <trkpt lat="40.777021" lon="0.287519">
        <ele>1232.696</ele>
        <time>2016-11-06T09:59:03Z</time>
      </trkpt>
      <trkpt lat="40.776865" lon="0.287578">
        <ele>1239.873</ele>
        <time>2016-11-06T10:00:09Z</time>
      </trkpt>
      <trkpt lat="40.776755" lon="0.286698">
        <ele>1243.185</ele>
        <time>2016-11-06T10:05:12Z</time>
      </trkpt>
      <trkpt lat="40.776457" lon="0.286529">
        <ele>1243.613</ele>
        <time>2016-11-06T10:07:19Z</time>
      </trkpt>
      <trkpt lat="40.775862" lon="0.285669">
        <ele>1245.508</ele>
        <time>2016-11-06T10:14:24Z</time>
      </trkpt>
      <trkpt lat="40.775902" lon="0.285417">
        <ele>1245.078</ele>
        <time>2016-11-06T10:15:28Z</time>
      </trkpt>
      <trkpt lat="40.775786" lon="0.285360">
        <ele>1247.092</ele>
        <time>2016-11-06T10:16:52Z</time>
      </trkpt>
      <trkpt lat="40.775989" lon="0.284809">
        <ele>1243.171</ele>
        <time>2016-11-06T10:20:18Z</time>
      </trkpt>
      <trkpt lat="40.775476" lon="0.284037">
        <ele>1240.249</ele>
        <time>2016-11-06T10:26:31Z</time>
      </trkpt>
      <trkpt lat="40.775275" lon="0.283463">
        <ele>1244.175</ele>
        <time>2016-11-06T10:29:03Z</time>
      </trkpt>
      <trkpt lat="40.775351" lon="0.282733">
        <ele>1247.094</ele>
        <time>2016-11-06T10:34:16Z</time>
      </trkpt>
      <trkpt lat="40.774911" lon="0.282291">
        <ele>1251.381</ele>
        <time>2016-11-06T10:36:35Z</time>
      </trkpt>
      <trkpt lat="40.774911" lon="0.281821">
        <ele>1256.177</ele>
        <time>2016-11-06T10:41:46Z</time>
      </trkpt>
      <trkpt lat="40.774686" lon="0.281382">
        <ele>1256.166</ele>
        <time>2016-11-06T10:44:40Z</time>
      </trkpt>
      <trkpt lat="40.774722" lon="0.281037">
        <ele>1259.529</ele>
        <time>2016-11-06T10:46:36Z</time>
      </trkpt>
      <trkpt lat="40.774304" lon="0.279216">
        <ele>1263.321</ele>
        <time>2016-11-06T10:53:34Z</time>
      </trkpt>
      <trkpt lat="40.773845" lon="0.278253">
        <ele>1259.008</ele>
        <time>2016-11-06T10:56:41Z</time>
      </trkpt>
      <trkpt lat="40.773775" lon="0.277342">
        <ele>1264.837</ele>
        <time>2016-11-06T10:58:44Z</time>
      </trkpt>
      <trkpt lat="40.773087" lon="0.276379">
        <ele>1267.651</ele>
        <time>2016-11-06T11:01:44Z</time>
      </trkpt>
      <trkpt lat="40.772083" lon="0.275497">
        <ele>1301.310</ele>
        <time>2016-11-06T11:32:07Z</time>
      </trkpt>
      <trkpt lat="40.772321" lon="0.276183">
        <ele>1304.738</ele>
        <time>2016-11-06T11:36:45Z</time>
      </trkpt>
      <trkpt lat="40.772458" lon="0.276230">
        <ele>1309.544</ele>
        <time>2016-11-06T11:37:54Z</time>
      </trkpt>
      <trkpt lat="40.773094" lon="0.277431">
        <ele>1324.453</ele>
        <time>2016-11-06T11:41:38Z</time>
      </trkpt>
      <trkpt lat="40.773335" lon="0.278590">
        <ele>1319.130</ele>
        <time>2016-11-06T11:45:00Z</time>
      </trkpt>
      <trkpt lat="40.773930" lon="0.280119">
        <ele>1328.736</ele>
        <time>2016-11-06T11:48:25Z</time>
      </trkpt>
      <trkpt lat="40.774196" lon="0.281267">
        <ele>1318.125</ele>
        <time>2016-11-06T11:51:11Z</time>
      </trkpt>
      <trkpt lat="40.774013" lon="0.281509">
        <ele>1313.826</ele>
        <time>2016-11-06T11:52:17Z</time>
      </trkpt>
      <trkpt lat="40.774077" lon="0.281978">
        <ele>1309.008</ele>
        <time>2016-11-06T11:53:01Z</time>
      </trkpt>
      <trkpt lat="40.774427" lon="0.282909">
        <ele>1314.708</ele>
        <time>2016-11-06T11:54:14Z</time>
      </trkpt>
      <trkpt lat="40.774480" lon="0.283626">
        <ele>1309.953</ele>
        <time>2016-11-06T11:55:11Z</time>
      </trkpt>
      <trkpt lat="40.774875" lon="0.284430">
        <ele>1310.967</ele>
        <time>2016-11-06T11:56:32Z</time>
      </trkpt>
      <trkpt lat="40.775026" lon="0.285570">
        <ele>1310.466</ele>
        <time>2016-11-06T11:58:05Z</time>
      </trkpt>
      <trkpt lat="40.775398" lon="0.286162">
        <ele>1305.614</ele>
        <time>2016-11-06T11:59:03Z</time>
      </trkpt>
      <trkpt lat="40.775404" lon="0.286531">
        <ele>1304.220</ele>
        <time>2016-11-06T11:59:30Z</time>
      </trkpt>
      <trkpt lat="40.775579" lon="0.286825">
        <ele>1303.749</ele>
        <time>2016-11-06T11:59:59Z</time>
      </trkpt>
      <trkpt lat="40.775816" lon="0.286821">
        <ele>1312.386</ele>
        <time>2016-11-06T12:00:25Z</time>
      </trkpt>
      <trkpt lat="40.775819" lon="0.286585">
        <ele>1313.872</ele>
        <time>2016-11-06T12:01:32Z</time>
      </trkpt>
      <trkpt lat="40.775875" lon="0.286752">
        <ele>1308.063</ele>
        <time>2016-11-06T12:02:47Z</time>
      </trkpt>
      <trkpt lat="40.775861" lon="0.287101">
        <ele>1311.944</ele>
        <time>2016-11-06T12:04:26Z</time>
      </trkpt>
      <trkpt lat="40.775566" lon="0.287450">
        <ele>1320.518</ele>
        <time>2016-11-06T12:05:40Z</time>
      </trkpt>
      <trkpt lat="40.775623" lon="0.287585">
        <ele>1323.408</ele>
        <time>2016-11-06T12:06:02Z</time>
      </trkpt>
      <trkpt lat="40.775407" lon="0.287460">
        <ele>1317.177</ele>
        <time>2016-11-06T12:08:33Z</time>
      </trkpt>
      <trkpt lat="40.775247" lon="0.287941">
        <ele>1306.631</ele>
        <time>2016-11-06T12:09:31Z</time>
      </trkpt>
      <trkpt lat="40.775294" lon="0.289067">
        <ele>1292.640</ele>
        <time>2016-11-06T12:15:52Z</time>
      </trkpt>
      <trkpt lat="40.775136" lon="0.289502">
        <ele>1284.998</ele>
        <time>2016-11-06T12:16:34Z</time>
      </trkpt>
      <trkpt lat="40.775278" lon="0.291621">
        <ele>1279.734</ele>
        <time>2016-11-06T12:19:32Z</time>
      </trkpt>
      <trkpt lat="40.775663" lon="0.292727">
        <ele>1269.183</ele>
        <time>2016-11-06T12:21:16Z</time>
      </trkpt>
      <trkpt lat="40.775742" lon="0.293392">
        <ele>1262.490</ele>
        <time>2016-11-06T12:22:14Z</time>
      </trkpt>
      <trkpt lat="40.775027" lon="0.294712">
        <ele>1228.786</ele>
        <time>2016-11-06T12:27:05Z</time>
      </trkpt>
      <trkpt lat="40.774989" lon="0.296775">
        <ele>1221.582</ele>
        <time>2016-11-06T12:30:00Z</time>
      </trkpt>
      <trkpt lat="40.775547" lon="0.299336">
        <ele>1217.243</ele>
        <time>2016-11-06T12:39:18Z</time>
      </trkpt>
      <trkpt lat="40.776031" lon="0.299493">
        <ele>1223.917</ele>
        <time>2016-11-06T12:41:22Z</time>
      </trkpt>
      <trkpt lat="40.776065" lon="0.299655">
        <ele>1239.308</ele>
        <time>2016-11-06T12:41:49Z</time>
      </trkpt>
      <trkpt lat="40.776157" lon="0.299562">
        <ele>1235.969</ele>
        <time>2016-11-06T12:42:42Z</time>
      </trkpt>
      <trkpt lat="40.776430" lon="0.299705">
        <ele>1246.033</ele>
        <time>2016-11-06T12:43:33Z</time>
      </trkpt>
      <trkpt lat="40.776846" lon="0.300327">
        <ele>1249.922</ele>
        <time>2016-11-06T12:44:50Z</time>
      </trkpt>
      <trkpt lat="40.777484" lon="0.300778">
        <ele>1260.930</ele>
        <time>2016-11-06T12:47:29Z</time>
      </trkpt>
      <trkpt lat="40.777811" lon="0.301383">
        <ele>1272.456</ele>
        <time>2016-11-06T12:49:28Z</time>
      </trkpt>
      <trkpt lat="40.778412" lon="0.301894">
        <ele>1299.835</ele>
        <time>2016-11-06T12:53:06Z</time>
      </trkpt>
      <trkpt lat="40.779543" lon="0.303708">
        <ele>1331.122</ele>
        <time>2016-11-06T13:02:38Z</time>
      </trkpt>
      <trkpt lat="40.779672" lon="0.304056">
        <ele>1330.188</ele>
        <time>2016-11-06T13:03:56Z</time>
      </trkpt>
      <trkpt lat="40.779553" lon="0.304020">
        <ele>1325.839</ele>
        <time>2016-11-06T13:05:13Z</time>
      </trkpt>
      <trkpt lat="40.779893" lon="0.304299">
        <ele>1333.501</ele>
        <time>2016-11-06T13:06:59Z</time>
      </trkpt>
      <trkpt lat="40.780059" lon="0.304663">
        <ele>1326.821</ele>
        <time>2016-11-06T13:07:39Z</time>
      </trkpt>
      <trkpt lat="40.780130" lon="0.305691">
        <ele>1346.508</ele>
        <time>2016-11-06T13:10:40Z</time>
      </trkpt>
      <trkpt lat="40.780019" lon="0.305942">
        <ele>1340.724</ele>
        <time>2016-11-06T13:11:01Z</time>
      </trkpt>
      <trkpt lat="40.780865" lon="0.308132">
        <ele>1340.228</ele>
        <time>2016-11-06T13:16:11Z</time>
      </trkpt>
      <trkpt lat="40.781069" lon="0.309406">
        <ele>1340.767</ele>
        <time>2016-11-06T13:17:57Z</time>
      </trkpt>
      <trkpt lat="40.781462" lon="0.310628">
        <ele>1334.595</ele>
        <time>2016-11-06T13:19:48Z</time>
      </trkpt>
      <trkpt lat="40.781569" lon="0.311691">
        <ele>1339.341</ele>
        <time>2016-11-06T13:21:06Z</time>
      </trkpt>
      <trkpt lat="40.782147" lon="0.313275">
        <ele>1342.190</ele>
        <time>2016-11-06T13:23:54Z</time>
      </trkpt>
      <trkpt lat="40.782130" lon="0.313994">
        <ele>1333.087</ele>
        <time>2016-11-06T13:26:10Z</time>
      </trkpt>
      <trkpt lat="40.782006" lon="0.313759">
        <ele>1339.323</ele>
        <time>2016-11-06T13:33:08Z</time>
      </trkpt>
      <trkpt lat="40.781489" lon="0.313576">
        <ele>1324.436</ele>
        <time>2016-11-06T13:34:30Z</time>
      </trkpt>
      <trkpt lat="40.781264" lon="0.312845">
        <ele>1311.917</ele>
        <time>2016-11-06T13:35:37Z</time>
      </trkpt>
      <trkpt lat="40.780931" lon="0.312503">
        <ele>1313.818</ele>
        <time>2016-11-06T13:36:34Z</time>
      </trkpt>
      <trkpt lat="40.780275" lon="0.312571">
        <ele>1293.608</ele>
        <time>2016-11-06T13:39:13Z</time>
      </trkpt>
      <trkpt lat="40.779897" lon="0.313140">
        <ele>1259.534</ele>
        <time>2016-11-06T13:46:05Z</time>
      </trkpt>
      <trkpt lat="40.780052" lon="0.313448">
        <ele>1253.228</ele>
        <time>2016-11-06T13:47:58Z</time>
      </trkpt>
      <trkpt lat="40.781014" lon="0.313995">
        <ele>1268.127</ele>
        <time>2016-11-06T13:52:24Z</time>
      </trkpt>
      <trkpt lat="40.781167" lon="0.314382">
        <ele>1269.665</ele>
        <time>2016-11-06T13:53:33Z</time>
      </trkpt>
      <trkpt lat="40.781770" lon="0.314633">
        <ele>1279.731</ele>
        <time>2016-11-06T13:54:52Z</time>
      </trkpt>
      <trkpt lat="40.782036" lon="0.315144">
        <ele>1268.190</ele>
        <time>2016-11-06T13:55:56Z</time>
      </trkpt>
      <trkpt lat="40.782311" lon="0.315279">
        <ele>1270.047</ele>
        <time>2016-11-06T13:56:57Z</time>
      </trkpt>
      <trkpt lat="40.782686" lon="0.315800">
        <ele>1268.143</ele>
        <time>2016-11-06T13:58:21Z</time>
      </trkpt>
      <trkpt lat="40.783046" lon="0.315466">
        <ele>1255.612</ele>
        <time>2016-11-06T14:00:07Z</time>
      </trkpt>
      <trkpt lat="40.783085" lon="0.314768">
        <ele>1249.432</ele>
        <time>2016-11-06T14:01:09Z</time>
      </trkpt>
      <trkpt lat="40.783689" lon="0.312788">
        <ele>1208.505</ele>
        <time>2016-11-06T14:04:21Z</time>
      </trkpt>
      <trkpt lat="40.784185" lon="0.312320">
        <ele>1190.708</ele>
        <time>2016-11-06T14:05:58Z</time>
      </trkpt>
      <trkpt lat="40.784600" lon="0.312381">
        <ele>1182.622</ele>
        <time>2016-11-06T14:06:48Z</time>
      </trkpt>
      <trkpt lat="40.784683" lon="0.311937">
        <ele>1173.486</ele>
        <time>2016-11-06T14:07:43Z</time>
      </trkpt>
      <trkpt lat="40.784416" lon="0.311821">
        <ele>1169.645</ele>
        <time>2016-11-06T14:08:12Z</time>
      </trkpt>
      <trkpt lat="40.784153" lon="0.311227">
        <ele>1161.943</ele>
        <time>2016-11-06T14:09:08Z</time>
      </trkpt>
      <trkpt lat="40.783277" lon="0.310209">
        <ele>1162.939</ele>
        <time>2016-11-06T14:11:11Z</time>
      </trkpt>
      <trkpt lat="40.783111" lon="0.309401">
        <ele>1170.118</ele>
        <time>2016-11-06T14:12:17Z</time>
      </trkpt>
      <trkpt lat="40.783196" lon="0.308901">
        <ele>1177.375</ele>
        <time>2016-11-06T14:13:52Z</time>
      </trkpt>
      <trkpt lat="40.782861" lon="0.308284">
        <ele>1166.231</ele>
        <time>2016-11-06T14:16:02Z</time>
      </trkpt>
      <trkpt lat="40.782592" lon="0.307296">
        <ele>1185.032</ele>
        <time>2016-11-06T14:19:44Z</time>
      </trkpt>
      <trkpt lat="40.782363" lon="0.307093">
        <ele>1181.692</ele>
        <time>2016-11-06T14:20:19Z</time>
      </trkpt>
      <trkpt lat="40.782173" lon="0.306559">
        <ele>1183.011</ele>
        <time>2016-11-06T14:20:59Z</time>
      </trkpt>
      <trkpt lat="40.781835" lon="0.306259">
        <ele>1184.508</ele>
        <time>2016-11-06T14:21:42Z</time>
      </trkpt>
      <trkpt lat="40.781592" lon="0.305268">
        <ele>1193.614</ele>
        <time>2016-11-06T14:23:08Z</time>
      </trkpt>
      <trkpt lat="40.781377" lon="0.304920">
        <ele>1202.858</ele>
        <time>2016-11-06T14:23:56Z</time>
      </trkpt>
      <trkpt lat="40.781264" lon="0.304436">
        <ele>1209.587</ele>
        <time>2016-11-06T14:24:54Z</time>
      </trkpt>
      <trkpt lat="40.781499" lon="0.303928">
        <ele>1214.395</ele>
        <time>2016-11-06T14:25:52Z</time>
      </trkpt>
      <trkpt lat="40.781313" lon="0.303519">
        <ele>1220.191</ele>
        <time>2016-11-06T14:26:47Z</time>
      </trkpt>
      <trkpt lat="40.781000" lon="0.303312">
        <ele>1212.410</ele>
        <time>2016-11-06T14:27:24Z</time>
      </trkpt>
      <trkpt lat="40.780601" lon="0.303341">
        <ele>1213.897</ele>
        <time>2016-11-06T14:28:00Z</time>
      </trkpt>
      <trkpt lat="40.778337" lon="0.300000">
        <ele>1160.963</ele>
        <time>2016-11-06T14:34:22Z</time>
      </trkpt>
      <trkpt lat="40.777734" lon="0.299907">
        <ele>1146.012</ele>
        <time>2016-11-06T14:35:59Z</time>
      </trkpt>
      <trkpt lat="40.777393" lon="0.299692">
        <ele>1141.232</ele>
        <time>2016-11-06T14:36:34Z</time>
      </trkpt>
      <trkpt lat="40.776427" lon="0.297575">
        <ele>1115.805</ele>
        <time>2016-11-06T14:41:33Z</time>
      </trkpt>
      <trkpt lat="40.776992" lon="0.297793">
        <ele>1096.008</ele>
        <time>2016-11-06T14:43:31Z</time>
      </trkpt>
      <trkpt lat="40.777085" lon="0.297588">
        <ele>1086.922</ele>
        <time>2016-11-06T14:44:17Z</time>
      </trkpt>
      <trkpt lat="40.777251" lon="0.297607">
        <ele>1081.636</ele>
        <time>2016-11-06T14:44:35Z</time>
      </trkpt>
      <trkpt lat="40.777622" lon="0.297913">
        <ele>1075.985</ele>
        <time>2016-11-06T14:45:43Z</time>
      </trkpt>
      <trkpt lat="40.778296" lon="0.297846">
        <ele>1061.413</ele>
        <time>2016-11-06T14:47:57Z</time>
      </trkpt>
      <trkpt lat="40.778426" lon="0.297727">
        <ele>1059.529</ele>
        <time>2016-11-06T14:48:13Z</time>
      </trkpt>
      <trkpt lat="40.778256" lon="0.297589">
        <ele>1054.248</ele>
        <time>2016-11-06T14:48:52Z</time>
      </trkpt>
      <trkpt lat="40.778374" lon="0.297470">
        <ele>1047.565</ele>
        <time>2016-11-06T14:49:47Z</time>
      </trkpt>
      <trkpt lat="40.779495" lon="0.296947">
        <ele>1027.871</ele>
        <time>2016-11-06T14:51:58Z</time>
      </trkpt>
      <trkpt lat="40.780965" lon="0.295596">
        <ele>1014.313</ele>
        <time>2016-11-06T14:54:22Z</time>
      </trkpt>
      <trkpt lat="40.781281" lon="0.295479">
        <ele>1012.943</ele>
        <time>2016-11-06T14:54:49Z</time>
      </trkpt>
      <trkpt lat="40.781842" lon="0.295552">
        <ele>1011.907</ele>
        <time>2016-11-06T14:55:44Z</time>
      </trkpt>
      <trkpt lat="40.782237" lon="0.294964">
        <ele>1010.508</ele>
        <time>2016-11-06T14:56:29Z</time>
      </trkpt>
      <trkpt lat="40.782492" lon="0.295050">
        <ele>1008.642</ele>
        <time>2016-11-06T14:57:01Z</time>
      </trkpt>
      <trkpt lat="40.782445" lon="0.294532">
        <ele>1006.256</ele>
        <time>2016-11-06T14:57:40Z</time>
      </trkpt>
      <trkpt lat="40.783006" lon="0.293556">
        <ele>995.635</ele>
        <time>2016-11-06T14:59:35Z</time>
      </trkpt>
      <trkpt lat="40.783553" lon="0.293320">
        <ele>989.893</ele>
        <time>2016-11-06T15:00:32Z</time>
      </trkpt>
      <trkpt lat="40.784084" lon="0.293580">
        <ele>981.619</ele>
        <time>2016-11-06T15:01:27Z</time>
      </trkpt>
      <trkpt lat="40.784247" lon="0.294094">
        <ele>976.488</ele>
        <time>2016-11-06T15:02:04Z</time>
      </trkpt>
      <trkpt lat="40.784659" lon="0.293721">
        <ele>972.515</ele>
        <time>2016-11-06T15:02:49Z</time>
      </trkpt>
      <trkpt lat="40.785062" lon="0.294219">
        <ele>968.721</ele>
        <time>2016-11-06T15:03:37Z</time>
      </trkpt>
      <trkpt lat="40.785298" lon="0.294274">
        <ele>964.893</ele>
        <time>2016-11-06T15:04:42Z</time>
      </trkpt>
    </trkseg>
  </trk>
</gpx>
